Phil's Backyard

 Latitude S 29° 46' 26"    Longitude E 151° 07' 14"    Elevation 586 m

:now: :today: :yesterday: :daily data: :this month: :this year: :records: :monthly records:
:gauges: :graphs: :weatherzone: :forum: :dashboard: :webcam:


A Fire Weather Index for personal weather stations

(See below the table for background)
Legend:
Low (0-210)
Very High (490 - 630)

Moderate (210 - 350)
Extreme (630 - 800)

High (350 - 490)
Catastrophic (800+)


Flame  Flame
126.7
Date Temp. (°C) Wind Speed (km/h) Rain (mm) RH Days since Rain pwsFWI
Prediction is active (including today!), values are above red line.
28/07/21 17.0 17.0 0.0 0.52 4 109.8
27/07/21 16.0 9.0 0.0 0.48 3 116.7
26/07/21 14.0 12.0 0.0 0.55 2 121.4
25/07/21 12.0 27.0 0.0 0.47 1 128.7
24/07/21 12.0 18.0 1.6 0.69 0 126.7
23/07/21 10.4 18.0 12.2 0.76 0 152.0
22/07/21 15.1 16.0 0.0 0.28 2 184.2
21/07/21 11.5 19.0 0.0 0.56 1 172.3
20/07/21 12.3 19.0 0.4 0.53 0 120.1
19/07/21 15.4 13.0 0.0 0.31 2 125.1
18/07/21 14.5 19.0 0.0 0.53 1 118.0
17/07/21 13.4 24.0 0.6 0.54 0 107.4
16/07/21 15.6 23.0 1.0 0.65 0 99.8
15/07/21 19.6 21.0 28.6 0.73 0 112.0
14/07/21 19.1 18.0 16.8 0.62 0 81.4
13/07/21 17.7 13.0 0.0 0.52 3 106.4
12/07/21 17.8 8.0 0.0 0.39 2 103.7
11/07/21 18.3 11.0 0.0 0.43 1 102.8
10/07/21 15.3 21.0 0.2 0.56 0 96.8
09/07/21 13.7 18.0 10.0 0.83 0 86.4
08/07/21 17.7 10.0 29.0 0.51 0 99.6
07/07/21 16.7 10.0 0.0 0.38 1 101.8
06/07/21 15.1 10.0 0.2 0.42 0 69.5
05/07/21 12.4 14.0 0.0 0.47 1 83.1
04/07/21 15.7 10.0 0.2 0.48 0 94.1
03/07/21 16.3 8.0 0.2 0.67 0 105.5
02/07/21 17.9 8.0 0.0 0.76 1 126.0
01/07/21 19.1 13.0 39.8 0.60 0 147.0
30/06/21 19.3 14.0 0.0 0.48 3 142.4
29/06/21 18.5 16.0 0.0 0.51 2 108.8
28/06/21 17.3 11.0 0.0 0.31 1 95.5
27/06/21 15.3 11.0 0.8 0.44 0 94.5
26/06/21 14.9 14.0 0.2 0.53 0 102.9
25/06/21 14.2 8.0 1.2 0.87 0 117.0
24/06/21 13.8 16.0 20.0 0.84 0 126.9
23/06/21 18.1 13.0 0.0 0.61 2 117.3
22/06/21 18.2 13.0 0.0 0.45 1 125.6
21/06/21 18.8 13.0 0.2 0.47 0 94.8
20/06/21 18.8 16.0 0.0 0.50 1 84.2
19/06/21 11.8 14.0 0.2 0.77 0 75.2
18/06/21 14.8 23.0 5.8 0.55 0 98.2
17/06/21 15.2 16.0 0.0 0.45 1 96.7
16/06/21 20.9 14.0 4.4 0.43 0 100.5
15/06/21 19.6 8.0 0.0 0.50 1 66.4
14/06/21 17.1 8.0 0.2 0.43 0 63.6
13/06/21 15.7 13.0 0.0 0.56 3 32.4
12/06/21 13.7 10.0 0.0 0.71 2 34.3
11/06/21 13.3 13.0 0.0 0.61 1 66.6
10/06/21 7.7 21.0 23.6 0.80 0 77.3
09/06/21 9.7 19.0 0.8 0.64 0 106.5
08/06/21 17.9 18.0 28.4 0.64 0 83.2
07/06/21 18.8 8.0 0.0 0.33 1 75.4
06/06/21 17.6 11.0 0.2 0.39 0 64.3
05/06/21 15.8 13.0 0.0 0.48 1 55.4
04/06/21 14.4 16.0 0.2 0.70 0 59.6
03/06/21 13.8 13.0 44.4 0.90 0 65.4
02/06/21 20.0 13.0 2.2 0.56 0 110.1
01/06/21 19.3 6.0 0.0 0.51 6 144.5
31/05/21 19.7 6.0 0.0 0.38 5 166.2
30/05/21 18.7 6.0 0.0 0.47 4 165.0

Science background here. Prediction: https://www.yourweather.co.uk/
:now: :today: :yesterday: :daily data: :this month: :this year: :records: :monthly records:
:gauges: :graphs: :weatherzone: :forum: :dashboard: ::
:
fire index: :fwi graphs: :top10: :extremes: :sysinfo:


Page updated daily at 9:00 AM
powered by CumulusMX v3.1.2 (3055) Valid HTML | Valid CSS
this page by Hans Rottier from the Cumulus Forum

Cumulus Top Weather Sites